sensor_id;sensor_type;location;lat;lon;timestamp;pressure;altitude;pressure_sealevel;temperature;humidity
54329;BME280;40710;51.120;13.136;2024-03-06T00:02:03;99621.13;;;6.57;64.50
54329;BME280;40710;51.120;13.136;2024-03-06T00:04:28;99614.09;;;6.59;64.56
54329;BME280;40710;51.120;13.136;2024-03-06T00:06:52;99621.31;;;6.51;64.31
54329;BME280;40710;51.120;13.136;2024-03-06T00:09:19;99629.94;;;6.27;65.07
54329;BME280;40710;51.120;13.136;2024-03-06T00:11:43;99623.09;;;6.51;64.52
54329;BME280;40710;51.120;13.136;2024-03-06T00:14:08;99628.75;;;6.37;64.89
54329;BME280;40710;51.120;13.136;2024-03-06T00:16:32;99626.53;;;6.51;64.33
54329;BME280;40710;51.120;13.136;2024-03-06T00:18:58;99637.13;;;6.18;65.02
54329;BME280;40710;51.120;13.136;2024-03-06T00:21:23;99635.53;;;6.42;64.55
54329;BME280;40710;51.120;13.136;2024-03-06T00:23:47;99643.06;;;6.23;65.53
54329;BME280;40710;51.120;13.136;2024-03-06T00:26:12;99639.59;;;5.93;65.83
54329;BME280;40710;51.120;13.136;2024-03-06T00:28:37;99639.59;;;5.93;66.17
54329;BME280;40710;51.120;13.136;2024-03-06T00:31:01;99634.84;;;6.08;66.17
54329;BME280;40710;51.120;13.136;2024-03-06T00:33:26;99638.00;;;6.19;65.23
54329;BME280;40710;51.120;13.136;2024-03-06T00:35:51;99635.16;;;6.27;64.63
54329;BME280;40710;51.120;13.136;2024-03-06T00:38:15;99636.72;;;6.32;64.54
54329;BME280;40710;51.120;13.136;2024-03-06T00:40:40;99640.66;;;6.17;64.80
54329;BME280;40710;51.120;13.136;2024-03-06T00:43:05;99636.53;;;6.10;65.49
54329;BME280;40710;51.120;13.136;2024-03-06T00:45:30;99643.41;;;6.41;64.83
54329;BME280;40710;51.120;13.136;2024-03-06T00:47:54;99644.44;;;6.07;64.83
54329;BME280;40710;51.120;13.136;2024-03-06T00:50:19;99646.72;;;5.57;66.40
54329;BME280;40710;51.120;13.136;2024-03-06T00:52:46;99647.41;;;5.95;66.04
54329;BME280;40710;51.120;13.136;2024-03-06T00:55:11;99645.34;;;5.75;65.82
54329;BME280;40710;51.120;13.136;2024-03-06T00:57:35;99655.69;;;5.46;66.92
54329;BME280;40710;51.120;13.136;2024-03-06T01:00:00;99652.81;;;5.87;65.92
54329;BME280;40710;51.120;13.136;2024-03-06T01:02:24;99656.81;;;5.69;66.30
54329;BME280;40710;51.120;13.136;2024-03-06T01:04:49;99655.25;;;5.63;66.61
54329;BME280;40710;51.120;13.136;2024-03-06T01:07:14;99657.94;;;5.90;65.40
54329;BME280;40710;51.120;13.136;2024-03-06T01:09:38;99652.59;;;5.65;66.58
54329;BME280;40710;51.120;13.136;2024-03-06T01:12:03;99663.91;;;5.33;66.96
54329;BME280;40710;51.120;13.136;2024-03-06T01:14:28;99659.19;;;5.47;67.43
54329;BME280;40710;51.120;13.136;2024-03-06T01:16:52;99659.66;;;5.61;66.76
54329;BME280;40710;51.120;13.136;2024-03-06T01:19:17;99658.69;;;5.64;66.71
54329;BME280;40710;51.120;13.136;2024-03-06T01:21:41;99660.84;;;5.49;66.55
54329;BME280;40710;51.120;13.136;2024-03-06T01:24:06;99659.22;;;5.45;67.19
54329;BME280;40710;51.120;13.136;2024-03-06T01:26:31;99653.25;;;5.42;66.58
54329;BME280;40710;51.120;13.136;2024-03-06T01:28:55;99658.13;;;5.54;66.88
54329;BME280;40710;51.120;13.136;2024-03-06T01:31:20;99658.78;;;5.61;66.33
54329;BME280;40710;51.120;13.136;2024-03-06T01:33:44;99648.09;;;5.70;65.97
54329;BME280;40710;51.120;13.136;2024-03-06T01:36:09;99655.19;;;5.34;66.99
54329;BME280;40710;51.120;13.136;2024-03-06T01:38:34;99661.81;;;5.13;67.64
54329;BME280;40710;51.120;13.136;2024-03-06T01:40:59;99654.97;;;5.41;66.36
54329;BME280;40710;51.120;13.136;2024-03-06T01:43:25;99652.59;;;5.34;66.48
54329;BME280;40710;51.120;13.136;2024-03-06T01:45:51;99655.56;;;5.53;65.86
54329;BME280;40710;51.120;13.136;2024-03-06T01:48:17;99657.00;;;5.63;66.10
54329;BME280;40710;51.120;13.136;2024-03-06T01:50:44;99660.34;;;5.37;66.54
54329;BME280;40710;51.120;13.136;2024-03-06T01:53:10;99654.81;;;5.47;66.25
54329;BME280;40710;51.120;13.136;2024-03-06T01:55:35;99664.00;;;5.29;67.53
54329;BME280;40710;51.120;13.136;2024-03-06T01:58:01;99666.78;;;5.22;66.90
54329;BME280;40710;51.120;13.136;2024-03-06T02:00:27;99654.94;;;5.43;65.73
54329;BME280;40710;51.120;13.136;2024-03-06T02:02:53;99665.94;;;5.54;66.00
54329;BME280;40710;51.120;13.136;2024-03-06T02:05:18;99664.09;;;5.89;64.50
54329;BME280;40710;51.120;13.136;2024-03-06T02:07:44;99678.97;;;5.54;65.81
54329;BME280;40710;51.120;13.136;2024-03-06T02:10:09;99671.19;;;5.53;65.90
54329;BME280;40710;51.120;13.136;2024-03-06T02:12:37;99668.47;;;5.56;66.10
54329;BME280;40710;51.120;13.136;2024-03-06T02:15:02;99669.69;;;5.44;65.60
54329;BME280;40710;51.120;13.136;2024-03-06T02:17:27;99678.78;;;5.60;65.24
54329;BME280;40710;51.120;13.136;2024-03-06T02:19:53;99682.41;;;5.22;66.32
54329;BME280;40710;51.120;13.136;2024-03-06T02:22:18;99693.38;;;5.02;66.97
54329;BME280;40710;51.120;13.136;2024-03-06T02:24:47;99692.25;;;5.12;66.76
54329;BME280;40710;51.120;13.136;2024-03-06T02:27:12;99691.72;;;5.32;66.56
54329;BME280;40710;51.120;13.136;2024-03-06T02:29:37;99701.44;;;4.91;67.69
54329;BME280;40710;51.120;13.136;2024-03-06T02:32:02;99705.91;;;4.86;68.09
54329;BME280;40710;51.120;13.136;2024-03-06T02:34:27;99704.41;;;5.11;66.85
54329;BME280;40710;51.120;13.136;2024-03-06T02:36:51;99698.53;;;5.36;66.14
54329;BME280;40710;51.120;13.136;2024-03-06T02:39:16;99696.66;;;5.41;66.07
54329;BME280;40710;51.120;13.136;2024-03-06T02:41:41;99703.94;;;5.30;66.09
54329;BME280;40710;51.120;13.136;2024-03-06T02:44:06;99716.03;;;4.98;66.71
54329;BME280;40710;51.120;13.136;2024-03-06T02:46:31;99714.91;;;5.08;66.62
54329;BME280;40710;51.120;13.136;2024-03-06T02:48:56;99713.78;;;5.52;65.18
54329;BME280;40710;51.120;13.136;2024-03-06T02:51:21;99723.59;;;5.07;66.18
54329;BME280;40710;51.120;13.136;2024-03-06T02:53:46;99729.28;;;5.23;66.17
54329;BME280;40710;51.120;13.136;2024-03-06T02:56:16;99718.66;;;5.31;66.15
54329;BME280;40710;51.120;13.136;2024-03-06T02:58:41;99723.41;;;5.49;65.67
54329;BME280;40710;51.120;13.136;2024-03-06T03:01:05;99720.50;;;5.60;64.48
54329;BME280;40710;51.120;13.136;2024-03-06T03:03:30;99719.41;;;5.36;65.36
54329;BME280;40710;51.120;13.136;2024-03-06T03:05:55;99720.03;;;5.46;65.29
54329;BME280;40710;51.120;13.136;2024-03-06T03:08:19;99723.41;;;5.49;64.75
54329;BME280;40710;51.120;13.136;2024-03-06T03:10:44;99729.22;;;4.90;66.25
54329;BME280;40710;51.120;13.136;2024-03-06T03:13:09;99748.13;;;4.99;66.31
54329;BME280;40710;51.120;13.136;2024-03-06T03:15:33;99743.31;;;4.82;67.05
54329;BME280;40710;51.120;13.136;2024-03-06T03:17:58;99740.84;;;4.77;66.63
54329;BME280;40710;51.120;13.136;2024-03-06T03:20:23;99751.00;;;4.88;66.78
54329;BME280;40710;51.120;13.136;2024-03-06T03:22:47;99744.13;;;4.84;66.24
54329;BME280;40710;51.120;13.136;2024-03-06T03:25:13;99739.47;;;4.98;65.94
54329;BME280;40710;51.120;13.136;2024-03-06T03:27:38;99742.28;;;4.89;65.81
54329;BME280;40710;51.120;13.136;2024-03-06T03:30:08;99747.13;;;5.04;65.63
54329;BME280;40710;51.120;13.136;2024-03-06T03:32:33;99746.88;;;5.14;65.07
54329;BME280;40710;51.120;13.136;2024-03-06T03:34:57;99750.41;;;4.75;66.43
54329;BME280;40710;51.120;13.136;2024-03-06T03:37:22;99757.03;;;4.51;67.03
54329;BME280;40710;51.120;13.136;2024-03-06T03:39:46;99759.81;;;4.82;66.52
54329;BME280;40710;51.120;13.136;2024-03-06T03:42:11;99763.88;;;4.55;66.97
54329;BME280;40710;51.120;13.136;2024-03-06T03:44:36;99768.69;;;4.33;67.69
54329;BME280;40710;51.120;13.136;2024-03-06T03:47:00;99773.19;;;4.26;67.86
54329;BME280;40710;51.120;13.136;2024-03-06T03:49:25;99768.38;;;4.48;67.75
54329;BME280;40710;51.120;13.136;2024-03-06T03:51:50;99774.81;;;4.71;66.79
54329;BME280;40710;51.120;13.136;2024-03-06T03:54:15;99761.75;;;5.10;65.17
54329;BME280;40710;51.120;13.136;2024-03-06T03:56:39;99765.66;;;4.92;65.52
54329;BME280;40710;51.120;13.136;2024-03-06T03:59:04;99774.25;;;4.58;66.35
54329;BME280;40710;51.120;13.136;2024-03-06T04:01:28;99776.03;;;4.56;66.86
54329;BME280;40710;51.120;13.136;2024-03-06T04:03:53;99780.28;;;4.59;66.64
54329;BME280;40710;51.120;13.136;2024-03-06T04:06:17;99785.16;;;4.74;66.42
54329;BME280;40710;51.120;13.136;2024-03-06T04:08:43;99782.06;;;4.96;65.81
54329;BME280;40710;51.120;13.136;2024-03-06T04:11:07;99780.09;;;5.05;65.17
54329;BME280;40710;51.120;13.136;2024-03-06T04:13:36;99784.03;;;4.86;65.63
54329;BME280;40710;51.120;13.136;2024-03-06T04:16:01;99789.03;;;4.95;65.68
54329;BME280;40710;51.120;13.136;2024-03-06T04:18:26;99790.81;;;4.93;66.10
54329;BME280;40710;51.120;13.136;2024-03-06T04:20:51;99802.06;;;4.54;67.35
54329;BME280;40710;51.120;13.136;2024-03-06T04:23:15;99796.22;;;4.84;66.80
54329;BME280;40710;51.120;13.136;2024-03-06T04:25:40;99790.28;;;5.15;65.43
54329;BME280;40710;51.120;13.136;2024-03-06T04:28:05;99792.06;;;4.75;65.89
54329;BME280;40710;51.120;13.136;2024-03-06T04:30:31;99793.06;;;5.08;65.48
54329;BME280;40710;51.120;13.136;2024-03-06T04:32:56;99802.44;;;4.77;66.57
54329;BME280;40710;51.120;13.136;2024-03-06T04:35:21;99790.22;;;5.18;65.55
54329;BME280;40710;51.120;13.136;2024-03-06T04:37:45;99798.78;;;4.85;66.45
54329;BME280;40710;51.120;13.136;2024-03-06T04:40:10;99802.06;;;4.56;67.59
54329;BME280;40710;51.120;13.136;2024-03-06T04:42:35;99800.59;;;4.82;67.21
54329;BME280;40710;51.120;13.136;2024-03-06T04:45:03;99789.22;;;5.23;65.63
54329;BME280;40710;51.120;13.136;2024-03-06T04:47:28;99805.00;;;4.80;66.27
54329;BME280;40710;51.120;13.136;2024-03-06T04:49:53;99797.41;;;4.70;65.98
54329;BME280;40710;51.120;13.136;2024-03-06T04:52:17;99797.41;;;4.70;66.33
54329;BME280;40710;51.120;13.136;2024-03-06T04:54:42;99805.25;;;4.67;66.32
54329;BME280;40710;51.120;13.136;2024-03-06T04:57:06;99797.31;;;4.33;67.42
54329;BME280;40710;51.120;13.136;2024-03-06T04:59:31;99798.28;;;4.69;66.26
54329;BME280;40710;51.120;13.136;2024-03-06T05:01:55;99802.09;;;4.53;66.30
54329;BME280;40710;51.120;13.136;2024-03-06T05:04:20;99806.59;;;4.46;66.99
54329;BME280;40710;51.120;13.136;2024-03-06T05:06:45;99803.38;;;4.74;66.19
54329;BME280;40710;51.120;13.136;2024-03-06T05:09:10;99811.19;;;4.33;66.95
54329;BME280;40710;51.120;13.136;2024-03-06T05:11:37;99809.22;;;4.84;65.99
54329;BME280;40710;51.120;13.136;2024-03-06T05:14:01;99810.72;;;4.57;65.64
54329;BME280;40710;51.120;13.136;2024-03-06T05:16:27;99821.09;;;4.14;67.55
54329;BME280;40710;51.120;13.136;2024-03-06T05:18:52;99825.28;;;4.23;67.20
54329;BME280;40710;51.120;13.136;2024-03-06T05:21:17;99821.59;;;4.33;67.20
54329;BME280;40710;51.120;13.136;2024-03-06T05:23:41;99827.91;;;4.22;66.58
54329;BME280;40710;51.120;13.136;2024-03-06T05:26:06;99828.69;;;4.67;66.21
54329;BME280;40710;51.120;13.136;2024-03-06T05:28:30;99829.06;;;4.91;65.22
54329;BME280;40710;51.120;13.136;2024-03-06T05:30:55;99840.56;;;4.81;65.54
54329;BME280;40710;51.120;13.136;2024-03-06T05:33:19;99839.31;;;4.97;64.50
54329;BME280;40710;51.120;13.136;2024-03-06T05:35:44;99833.16;;;5.01;64.65
54329;BME280;40710;51.120;13.136;2024-03-06T05:38:09;99838.63;;;4.48;65.89
54329;BME280;40710;51.120;13.136;2024-03-06T05:40:33;99838.47;;;4.58;65.64
54329;BME280;40710;51.120;13.136;2024-03-06T05:43:01;99838.50;;;4.95;64.40
54329;BME280;40710;51.120;13.136;2024-03-06T05:45:26;99840.31;;;4.91;64.85
54329;BME280;40710;51.120;13.136;2024-03-06T05:47:50;99850.00;;;4.85;64.72
54329;BME280;40710;51.120;13.136;2024-03-06T05:50:16;99844.88;;;4.82;64.19
54329;BME280;40710;51.120;13.136;2024-03-06T05:52:40;99846.44;;;4.89;64.95
54329;BME280;40710;51.120;13.136;2024-03-06T05:55:05;99854.09;;;4.56;65.58
54329;BME280;40710;51.120;13.136;2024-03-06T05:57:33;99853.97;;;4.62;65.68
54329;BME280;40710;51.120;13.136;2024-03-06T05:59:58;99859.94;;;4.67;65.99
54329;BME280;40710;51.120;13.136;2024-03-06T06:02:22;99854.09;;;4.58;65.19
54329;BME280;40710;51.120;13.136;2024-03-06T06:04:47;99856.94;;;4.86;64.89
54329;BME280;40710;51.120;13.136;2024-03-06T06:07:11;99857.47;;;4.61;65.28
54329;BME280;40710;51.120;13.136;2024-03-06T06:09:36;99870.91;;;4.40;66.54
54329;BME280;40710;51.120;13.136;2024-03-06T06:12:01;99883.22;;;3.83;68.25
54329;BME280;40710;51.120;13.136;2024-03-06T06:14:25;99879.44;;;4.46;66.85
54329;BME280;40710;51.120;13.136;2024-03-06T06:16:51;99874.47;;;4.78;66.57
54329;BME280;40710;51.120;13.136;2024-03-06T06:19:16;99880.19;;;4.95;65.84
54329;BME280;40710;51.120;13.136;2024-03-06T06:21:41;99888.56;;;4.67;67.34
54329;BME280;40710;51.120;13.136;2024-03-06T06:24:05;99885.13;;;4.22;67.22
54329;BME280;40710;51.120;13.136;2024-03-06T06:26:30;99893.56;;;4.33;67.03
54329;BME280;40710;51.120;13.136;2024-03-06T06:28:55;99891.41;;;4.55;66.74
54329;BME280;40710;51.120;13.136;2024-03-06T06:31:20;99884.41;;;4.59;66.37
54329;BME280;40710;51.120;13.136;2024-03-06T06:33:44;99895.91;;;4.47;66.29
54329;BME280;40710;51.120;13.136;2024-03-06T06:36:10;99895.53;;;4.67;65.89
54329;BME280;40710;51.120;13.136;2024-03-06T06:38:35;99900.78;;;4.64;66.11
54329;BME280;40710;51.120;13.136;2024-03-06T06:40:59;99903.97;;;4.34;67.96
54329;BME280;40710;51.120;13.136;2024-03-06T06:43:24;99898.38;;;4.97;65.90
54329;BME280;40710;51.120;13.136;2024-03-06T06:45:48;99904.09;;;4.73;65.72
54329;BME280;40710;51.120;13.136;2024-03-06T06:48:13;99909.66;;;4.97;66.29
54329;BME280;40710;51.120;13.136;2024-03-06T06:50:37;99908.63;;;5.04;65.65
54329;BME280;40710;51.120;13.136;2024-03-06T06:53:02;99904.72;;;5.61;64.51
54329;BME280;40710;51.120;13.136;2024-03-06T06:55:27;99896.00;;;5.62;64.31
54329;BME280;40710;51.120;13.136;2024-03-06T06:57:52;99899.94;;;5.80;63.93
54329;BME280;40710;51.120;13.136;2024-03-06T07:00:16;99904.44;;;5.74;63.68
54329;BME280;40710;51.120;13.136;2024-03-06T07:02:43;99906.06;;;5.78;63.65
54329;BME280;40710;51.120;13.136;2024-03-06T07:05:09;99899.31;;;6.38;62.57
54329;BME280;40710;51.120;13.136;2024-03-06T07:07:35;99898.75;;;6.59;61.98
54329;BME280;40710;51.120;13.136;2024-03-06T07:09:59;99899.06;;;7.08;61.02
54329;BME280;40710;51.120;13.136;2024-03-06T07:12:24;99880.97;;;8.34;57.44
54329;BME280;40710;51.120;13.136;2024-03-06T07:14:48;99866.38;;;10.48;51.03
54329;BME280;40710;51.120;13.136;2024-03-06T07:17:13;99863.16;;;11.00;49.32
54329;BME280;40710;51.120;13.136;2024-03-06T07:19:38;99873.25;;;11.09;49.14
54329;BME280;40710;51.120;13.136;2024-03-06T07:22:03;99897.28;;;9.37;52.12
54329;BME280;40710;51.120;13.136;2024-03-06T07:24:28;99910.09;;;7.73;56.01
54329;BME280;40710;51.120;13.136;2024-03-06T07:26:52;99925.38;;;7.58;58.51
54329;BME280;40710;51.120;13.136;2024-03-06T07:29:17;99909.78;;;8.34;56.80
54329;BME280;40710;51.120;13.136;2024-03-06T07:31:42;99886.16;;;10.15;51.05
54329;BME280;40710;51.120;13.136;2024-03-06T07:34:07;99902.25;;;9.43;52.59
54329;BME280;40710;51.120;13.136;2024-03-06T07:36:32;99912.81;;;8.72;54.85
54329;BME280;40710;51.120;13.136;2024-03-06T07:38:57;99913.34;;;9.05;54.67
54329;BME280;40710;51.120;13.136;2024-03-06T07:41:22;99915.66;;;9.13;53.95
54329;BME280;40710;51.120;13.136;2024-03-06T07:43:47;99926.22;;;7.87;56.47
54329;BME280;40710;51.120;13.136;2024-03-06T07:46:12;99927.13;;;8.38;56.31
54329;BME280;40710;51.120;13.136;2024-03-06T07:48:38;99945.25;;;7.92;57.22
54329;BME280;40710;51.120;13.136;2024-03-06T07:51:02;99945.91;;;7.98;57.98
54329;BME280;40710;51.120;13.136;2024-03-06T07:53:27;99933.06;;;9.60;54.79
54329;BME280;40710;51.120;13.136;2024-03-06T07:55:51;99912.78;;;11.07;50.21
54329;BME280;40710;51.120;13.136;2024-03-06T07:58:16;99926.41;;;10.38;52.58
54329;BME280;40710;51.120;13.136;2024-03-06T08:00:41;99922.22;;;10.53;51.53
54329;BME280;40710;51.120;13.136;2024-03-06T08:03:05;99910.03;;;11.47;49.49
54329;BME280;40710;51.120;13.136;2024-03-06T08:05:30;99907.22;;;13.05;45.64
54329;BME280;40710;51.120;13.136;2024-03-06T08:07:55;99933.47;;;11.15;48.76
54329;BME280;40710;51.120;13.136;2024-03-06T08:10:20;99955.16;;;9.32;54.76
54329;BME280;40710;51.120;13.136;2024-03-06T08:12:45;99958.97;;;9.47;54.58
54329;BME280;40710;51.120;13.136;2024-03-06T08:15:11;99968.09;;;8.89;56.65
54329;BME280;40710;51.120;13.136;2024-03-06T08:17:38;99958.75;;;9.30;55.92
54329;BME280;40710;51.120;13.136;2024-03-06T08:20:03;99962.06;;;9.57;54.92
54329;BME280;40710;51.120;13.136;2024-03-06T08:22:31;99977.16;;;8.81;56.93
54329;BME280;40710;51.120;13.136;2024-03-06T08:24:57;99986.25;;;7.92;59.41
54329;BME280;40710;51.120;13.136;2024-03-06T08:27:21;99989.25;;;7.80;60.37
54329;BME280;40710;51.120;13.136;2024-03-06T08:29:46;99989.50;;;7.72;61.22
54329;BME280;40710;51.120;13.136;2024-03-06T08:32:10;99990.03;;;8.10;60.67
54329;BME280;40710;51.120;13.136;2024-03-06T08:34:35;99997.50;;;7.94;61.21
54329;BME280;40710;51.120;13.136;2024-03-06T08:37:00;99997.91;;;7.53;61.66
54329;BME280;40710;51.120;13.136;2024-03-06T08:39:25;99997.09;;;7.80;61.64
54329;BME280;40710;51.120;13.136;2024-03-06T08:41:50;100000.81;;;7.72;60.84
54329;BME280;40710;51.120;13.136;2024-03-06T08:44:14;100000.09;;;7.67;61.14
54329;BME280;40710;51.120;13.136;2024-03-06T08:46:39;100008.97;;;7.33;63.18
54329;BME280;40710;51.120;13.136;2024-03-06T08:49:03;100005.19;;;8.00;61.41
54329;BME280;40710;51.120;13.136;2024-03-06T08:51:28;100017.38;;;6.49;64.14
54329;BME280;40710;51.120;13.136;2024-03-06T08:53:52;100006.25;;;7.66;61.79
54329;BME280;40710;51.120;13.136;2024-03-06T08:56:17;100013.28;;;7.34;62.80
54329;BME280;40710;51.120;13.136;2024-03-06T08:58:43;100019.47;;;7.90;62.17
54329;BME280;40710;51.120;13.136;2024-03-06T09:01:07;100017.56;;;8.22;61.75
54329;BME280;40710;51.120;13.136;2024-03-06T09:03:32;100019.53;;;7.58;62.12
54329;BME280;40710;51.120;13.136;2024-03-06T09:05:56;100022.56;;;7.45;62.78
54329;BME280;40710;51.120;13.136;2024-03-06T09:08:21;100032.66;;;7.57;63.87
54329;BME280;40710;51.120;13.136;2024-03-06T09:10:45;100038.53;;;6.73;65.33
54329;BME280;40710;51.120;13.136;2024-03-06T09:13:10;100035.03;;;7.66;63.41
54329;BME280;40710;51.120;13.136;2024-03-06T09:15:34;100041.16;;;7.65;63.25
54329;BME280;40710;51.120;13.136;2024-03-06T09:17:59;100039.13;;;7.45;63.84
54329;BME280;40710;51.120;13.136;2024-03-06T09:20:23;100035.84;;;7.68;62.87
54329;BME280;40710;51.120;13.136;2024-03-06T09:22:49;100051.09;;;6.91;63.96
54329;BME280;40710;51.120;13.136;2024-03-06T09:25:13;100054.28;;;6.70;64.76
54329;BME280;40710;51.120;13.136;2024-03-06T09:27:38;100049.69;;;7.11;64.96
54329;BME280;40710;51.120;13.136;2024-03-06T09:30:02;100061.88;;;7.12;65.33
54329;BME280;40710;51.120;13.136;2024-03-06T09:32:27;100052.09;;;7.18;65.41
54329;BME280;40710;51.120;13.136;2024-03-06T09:34:52;100042.69;;;7.43;64.32
54329;BME280;40710;51.120;13.136;2024-03-06T09:37:17;100052.03;;;7.51;63.66
54329;BME280;40710;51.120;13.136;2024-03-06T09:39:42;100047.22;;;7.94;63.26
54329;BME280;40710;51.120;13.136;2024-03-06T09:42:07;100036.19;;;8.39;62.81
54329;BME280;40710;51.120;13.136;2024-03-06T09:44:32;100027.63;;;10.02;57.34
54329;BME280;40710;51.120;13.136;2024-03-06T09:46:59;100033.97;;;8.80;60.54
54329;BME280;40710;51.120;13.136;2024-03-06T09:49:26;100043.91;;;8.70;60.55
54329;BME280;40710;51.120;13.136;2024-03-06T09:51:53;100039.31;;;8.24;61.16
54329;BME280;40710;51.120;13.136;2024-03-06T09:54:20;100044.34;;;8.30;62.21
54329;BME280;40710;51.120;13.136;2024-03-06T09:56:45;100060.25;;;7.67;64.43
54329;BME280;40710;51.120;13.136;2024-03-06T09:59:11;100057.59;;;7.69;64.75
54329;BME280;40710;51.120;13.136;2024-03-06T10:01:40;100058.81;;;8.43;63.02
54329;BME280;40710;51.120;13.136;2024-03-06T10:04:25;100062.75;;;8.00;63.28
54329;BME280;40710;51.120;13.136;2024-03-06T10:06:59;100057.56;;;8.54;61.89
54329;BME280;40710;51.120;13.136;2024-03-06T10:09:24;100047.59;;;8.90;60.76
54329;BME280;40710;51.120;13.136;2024-03-06T10:11:50;100061.72;;;8.06;62.95
54329;BME280;40710;51.120;13.136;2024-03-06T10:14:17;100075.97;;;7.95;64.20
54329;BME280;40710;51.120;13.136;2024-03-06T10:16:54;100064.66;;;9.02;61.42
54329;BME280;40710;51.120;13.136;2024-03-06T10:19:21;100072.84;;;8.39;63.07
54329;BME280;40710;51.120;13.136;2024-03-06T10:21:50;100073.13;;;8.31;62.76
54329;BME280;40710;51.120;13.136;2024-03-06T10:24:28;100060.31;;;9.26;60.82
54329;BME280;40710;51.120;13.136;2024-03-06T10:26:55;100058.00;;;9.17;60.44
54329;BME280;40710;51.120;13.136;2024-03-06T10:29:22;100054.56;;;9.15;60.27
54329;BME280;40710;51.120;13.136;2024-03-06T10:31:53;100051.25;;;10.67;58.41
54329;BME280;40710;51.120;13.136;2024-03-06T10:34:25;100046.41;;;10.58;55.10
54329;BME280;40710;51.120;13.136;2024-03-06T10:36:58;100035.50;;;11.27;54.01
54329;BME280;40710;51.120;13.136;2024-03-06T10:39:23;100051.44;;;10.42;56.74
54329;BME280;40710;51.120;13.136;2024-03-06T10:41:53;100040.75;;;11.08;55.36
54329;BME280;40710;51.120;13.136;2024-03-06T10:44:23;100019.25;;;13.49;50.24
54329;BME280;40710;51.120;13.136;2024-03-06T10:46:55;100000.84;;;17.80;41.55
54329;BME280;40710;51.120;13.136;2024-03-06T10:49:22;100006.91;;;17.32;43.04
54329;BME280;40710;51.120;13.136;2024-03-06T10:51:51;99982.94;;;21.47;35.02
54329;BME280;40710;51.120;13.136;2024-03-06T10:54:16;100015.47;;;17.98;39.18
54329;BME280;40710;51.120;13.136;2024-03-06T10:56:41;99991.53;;;20.47;35.96
54329;BME280;40710;51.120;13.136;2024-03-06T10:59:10;99988.50;;;20.72;34.04
54329;BME280;40710;51.120;13.136;2024-03-06T11:01:37;99974.66;;;23.97;30.24
54329;BME280;40710;51.120;13.136;2024-03-06T11:04:01;100009.16;;;21.63;32.40
54329;BME280;40710;51.120;13.136;2024-03-06T11:06:27;100021.75;;;18.92;35.96
54329;BME280;40710;51.120;13.136;2024-03-06T11:08:52;100039.53;;;17.47;39.54
54329;BME280;40710;51.120;13.136;2024-03-06T11:11:21;100038.78;;;17.32;40.11
54329;BME280;40710;51.120;13.136;2024-03-06T11:13:46;100034.50;;;18.05;39.29
54329;BME280;40710;51.120;13.136;2024-03-06T11:16:12;100026.38;;;17.07;40.24
54329;BME280;40710;51.120;13.136;2024-03-06T11:23:26;100027.75;;;18.12;38.92
54329;BME280;40710;51.120;13.136;2024-03-06T11:28:19;100021.06;;;18.30;38.03
54329;BME280;40710;51.120;13.136;2024-03-06T11:30:45;100024.38;;;18.10;38.85
54329;BME280;40710;51.120;13.136;2024-03-06T11:33:14;100023.91;;;17.42;40.11
54329;BME280;40710;51.120;13.136;2024-03-06T11:35:42;100019.78;;;18.12;38.21
54329;BME280;40710;51.120;13.136;2024-03-06T11:38:16;100009.16;;;19.62;36.31
54329;BME280;40710;51.120;13.136;2024-03-06T11:40:44;99998.88;;;20.01;35.01
54329;BME280;40710;51.120;13.136;2024-03-06T11:43:27;99994.16;;;21.41;33.39
54329;BME280;40710;51.120;13.136;2024-03-06T11:45:52;99993.00;;;22.81;30.72
54329;BME280;40710;51.120;13.136;2024-03-06T11:48:17;99987.44;;;22.93;30.54
54329;BME280;40710;51.120;13.136;2024-03-06T11:50:44;99993.38;;;21.50;31.73
54329;BME280;40710;51.120;13.136;2024-03-06T11:53:08;99968.41;;;25.03;27.92
54329;BME280;40710;51.120;13.136;2024-03-06T11:55:33;99995.31;;;23.04;29.62
54329;BME280;40710;51.120;13.136;2024-03-06T11:57:58;99985.03;;;23.09;29.29
54329;BME280;40710;51.120;13.136;2024-03-06T12:00:23;99993.50;;;22.48;30.33
54329;BME280;40710;51.120;13.136;2024-03-06T12:02:48;99985.28;;;22.59;29.52
54329;BME280;40710;51.120;13.136;2024-03-06T12:05:13;99977.09;;;23.45;28.70
54329;BME280;40710;51.120;13.136;2024-03-06T12:07:48;99975.38;;;24.18;27.99
54329;BME280;40710;51.120;13.136;2024-03-06T12:10:12;99980.59;;;23.73;28.17
54329;BME280;40710;51.120;13.136;2024-03-06T12:12:37;99975.97;;;24.11;27.57
54329;BME280;40710;51.120;13.136;2024-03-06T12:15:03;99979.00;;;22.88;28.73
54329;BME280;40710;51.120;13.136;2024-03-06T12:17:30;100010.88;;;18.00;35.18
54329;BME280;40710;51.120;13.136;2024-03-06T12:19:55;100024.59;;;16.94;37.61
54329;BME280;40710;51.120;13.136;2024-03-06T12:22:25;100027.50;;;16.11;39.04
54329;BME280;40710;51.120;13.136;2024-03-06T12:24:58;100037.34;;;14.96;41.69
54329;BME280;40710;51.120;13.136;2024-03-06T12:27:23;100042.69;;;14.49;43.17
54329;BME280;40710;51.120;13.136;2024-03-06T12:29:52;100044.66;;;14.15;43.23
54329;BME280;40710;51.120;13.136;2024-03-06T12:32:17;100050.88;;;13.51;45.00
54329;BME280;40710;51.120;13.136;2024-03-06T12:34:42;100043.25;;;13.11;45.35
54329;BME280;40710;51.120;13.136;2024-03-06T12:37:10;100052.09;;;12.77;45.92
54329;BME280;40710;51.120;13.136;2024-03-06T12:39:35;100052.00;;;12.61;46.53
54329;BME280;40710;51.120;13.136;2024-03-06T12:42:00;100040.91;;;12.89;46.10
54329;BME280;40710;51.120;13.136;2024-03-06T12:44:24;100036.19;;;14.55;43.88
54329;BME280;40710;51.120;13.136;2024-03-06T12:46:49;100016.34;;;14.92;42.29
54329;BME280;40710;51.120;13.136;2024-03-06T12:49:14;100040.72;;;14.07;44.35
54329;BME280;40710;51.120;13.136;2024-03-06T12:51:39;100034.78;;;13.71;43.85
54329;BME280;40710;51.120;13.136;2024-03-06T12:54:04;100027.44;;;14.08;43.26